Map

Track Data

SID SEASON NUMBER BASIN SUBBASIN NAME ISO_TIME NATURE LAT LON WMO_WIND WMO_PRES WMO_AGENCY TRACK_TYPE DIST2LAND LANDFALL IFLAG USA_AGENCY USA_ATCF_ID USA_LAT USA_LON USA_RECORD USA_STATUS USA_WIND USA_PRES USA_SSHS USA_R34_NE USA_R34_SE USA_R34_SW USA_R34_NW USA_R50_NE USA_R50_SE USA_R50_SW USA_R50_NW USA_R64_NE USA_R64_SE USA_R64_SW USA_R64_NW USA_POCI USA_ROCI USA_RMW USA_EYE TOKYO_LAT TOKYO_LON TOKYO_GRADE TOKYO_WIND TOKYO_PRES TOKYO_R50_DIR TOKYO_R50_LONG TOKYO_R50_SHORT TOKYO_R30_DIR TOKYO_R30_LONG TOKYO_R30_SHORT TOKYO_LAND CMA_LAT CMA_LON CMA_CAT CMA_WIND CMA_PRES HKO_LAT HKO_LON HKO_CAT HKO_WIND HKO_PRES NEWDELHI_LAT NEWDELHI_LON NEWDELHI_GRADE NEWDELHI_WIND NEWDELHI_PRES NEWDELHI_CI NEWDELHI_DP NEWDELHI_POCI REUNION_LAT REUNION_LON REUNION_TYPE REUNION_WIND REUNION_PRES REUNION_TNUM REUNION_CI REUNION_RMW REUNION_R34_NE REUNION_R34_SE REUNION_R34_SW REUNION_R34_NW REUNION_R50_NE REUNION_R50_SE REUNION_R50_SW REUNION_R50_NW REUNION_R64_NE REUNION_R64_SE REUNION_R64_SW REUNION_R64_NW BOM_LAT BOM_LON BOM_TYPE BOM_WIND BOM_PRES BOM_TNUM BOM_CI BOM_RMW BOM_R34_NE BOM_R34_SE BOM_R34_SW BOM_R34_NW BOM_R50_NE BOM_R50_SE BOM_R50_SW BOM_R50_NW BOM_R64_NE BOM_R64_SE BOM_R64_SW BOM_R64_NW BOM_ROCI BOM_POCI BOM_EYE BOM_POS_METHOD BOM_PRES_METHOD NADI_LAT NADI_LON NADI_CAT NADI_WIND NADI_PRES WELLINGTON_LAT WELLINGTON_LON WELLINGTON_WIND WELLINGTON_PRES DS824_LAT DS824_LON DS824_STAGE DS824_WIND DS824_PRES TD9636_LAT TD9636_LON TD9636_STAGE TD9636_WIND TD9636_PRES TD9635_LAT TD9635_LON TD9635_WIND TD9635_PRES TD9635_ROCI NEUMANN_LAT NEUMANN_LON NEUMANN_CLASS NEUMANN_WIND NEUMANN_PRES MLC_LAT MLC_LON MLC_CLASS MLC_WIND MLC_PRES USA_GUST BOM_GUST BOM_GUST_PER REUNION_GUST REUNION_GUST_PER USA_SEAHGT USA_SEARAD_NE USA_SEARAD_SE USA_SEARAD_SW USA_SEARAD_NW STORM_SPEED STORM_DIR
1922042S14063 1922 14 SI MM NOT_NAMED 1922-02-11 06:00:00 NR -14.1000 62.6000 reunion main 849 809 _____O________ -1 -14.1000 62.6000 99 9.90000 8 214
1922042S14063 1922 14 SI MM NOT_NAMED 1922-02-11 09:00:00 NR -14.4284 62.3725 main 809 770 _____P________ -1 -14.4284 62.3725 99 8 214
1922042S14063 1922 14 SI MM NOT_NAMED 1922-02-11 12:00:00 NR -14.7575 62.1495 main 754 714 _____P________ -1 -14.7575 62.1495 99 8 213
1922042S14063 1922 14 SI MM NOT_NAMED 1922-02-11 15:00:00 NR -15.0882 61.9363 main 714 675 _____P________ -1 -15.0882 61.9363 99 8 211
1922042S14063 1922 14 SI MM NOT_NAMED 1922-02-11 18:00:00 NR -15.4215 61.7379 main 675 642 _____P________ -1 -15.4215 61.7379 99 8 208
1922042S14063 1922 14 SI MM NOT_NAMED 1922-02-11 21:00:00 NR -15.7584 61.5598 main 633 594 _____P________ -1 -15.7584 61.5598 99 8 205
1922042S14063 1922 14 SI MM NOT_NAMED 1922-02-12 00:00:00 NR -16.0997 61.4073 main 594 562 _____P________ -1 -16.0997 61.4073 99 7 201
1922042S14063 1922 14 SI MM NOT_NAMED 1922-02-12 03:00:00 NR -16.4466 61.2855 main 562 522 _____P________ -1 -16.4466 61.2855 99 7 196
1922042S14063 1922 14 SI MM NOT_NAMED 1922-02-12 06:00:00 NR -16.8000 61.2000 reunion main 522 498 _____O________ -1 -16.8000 61.2000 99 9.90000 7 190
1922042S14063 1922 14 SI MM NOT_NAMED 1922-02-12 09:00:00 NR -17.1604 61.1548 main 491 461 _____P________ -1 -17.1604 61.1548 99 7 185
1922042S14063 1922 14 SI MM NOT_NAMED 1922-02-12 12:00:00 NR -17.5260 61.1488 main 461 442 _____P________ -1 -17.5260 61.1488 99 7 0
1922042S14063 1922 14 SI MM NOT_NAMED 1922-02-12 15:00:00 NR -17.8946 61.1796 main 442 424 _____P________ -1 -17.8946 61.1796 99 7 173
1922042S14063 1922 14 SI MM NOT_NAMED 1922-02-12 18:00:00 NR -18.2638 61.2447 main 419 413 _____P________ -1 -18.2638 61.2447 99 8 168
1922042S14063 1922 14 SI MM NOT_NAMED 1922-02-12 21:00:00 NR -18.6313 61.3418 main 413 408 _____P________ -1 -18.6313 61.3418 99 8 164
1922042S14063 1922 14 SI MM NOT_NAMED 1922-02-13 00:00:00 NR -18.9948 61.4684 main 413 406 _____P________ -1 -18.9948 61.4684 99 8 160
1922042S14063 1922 14 SI MM NOT_NAMED 1922-02-13 03:00:00 NR -19.3518 61.6219 main 409 409 _____P________ -1 -19.3518 61.6219 99 8 156
1922042S14063 1922 14 SI MM NOT_NAMED 1922-02-13 06:00:00 NR -19.7000 61.8000 reunion main 423 421 _____O________ -1 -19.7000 61.8000 99 9.90000 7 156
1922042S14063 1922 14 SI MM NOT_NAMED 1922-02-13 09:00:00 NR -20.0108 61.9340 main 429 429 _____P________ -1 -20.0108 61.9340 99 7 156
1922042S14063 1922 14 SI MM NOT_NAMED 1922-02-13 12:00:00 NR -20.3107 62.0912 main 448 448 _____P________ -1 -20.3107 62.0912 99 7 152
1922042S14063 1922 14 SI MM NOT_NAMED 1922-02-13 15:00:00 NR -20.6053 62.2764 main 469 469 _____P________ -1 -20.6053 62.2764 99 7 147
1922042S14063 1922 14 SI MM NOT_NAMED 1922-02-13 18:00:00 NR -20.9005 62.4946 main 493 493 _____P________ -1 -20.9005 62.4946 99 7 143
1922042S14063 1922 14 SI MM NOT_NAMED 1922-02-13 21:00:00 NR -21.2020 62.7508 main 529 529 _____P________ -1 -21.2020 62.7508 99 8 140
1922042S14063 1922 14 SI MM NOT_NAMED 1922-02-14 00:00:00 NR -21.5153 63.0502 main 566 566 _____P________ -1 -21.5153 63.0502 99 9 137
1922042S14063 1922 14 SI MM NOT_NAMED 1922-02-14 03:00:00 NR -21.8461 63.3981 main 604 604 _____P________ -1 -21.8461 63.3981 99 10 135
1922042S14063 1922 14 SI MM NOT_NAMED 1922-02-14 06:00:00 NR -22.2000 63.8000 reunion main 656 656 _____O________ -1 -22.2000 63.8000 99 9.90000 11 134
1922042S14063 1922 14 SI MM NOT_NAMED 1922-02-14 09:00:00 NR -22.5944 64.2342 main 710 710 _____P________ -1 -22.5944 64.2342 99 12 134
1922042S14063 1922 14 SI MM NOT_NAMED 1922-02-14 12:00:00 NR -23.0101 64.7235 main 774 774 _____P________ -1 -23.0101 64.7235 99 13 132
1922042S14063 1922 14 SI MM NOT_NAMED 1922-02-14 15:00:00 NR -23.4425 65.2640 main 847 847 _____P________ -1 -23.4425 65.2640 99 14 130
1922042S14063 1922 14 SI MM NOT_NAMED 1922-02-14 18:00:00 NR -23.8872 65.8520 main 925 925 _____P________ -1 -23.8872 65.8520 99 14 129
1922042S14063 1922 14 SI MM NOT_NAMED 1922-02-14 21:00:00 NR -24.3396 66.4835 main 998 998 _____P________ -1 -24.3396 66.4835 99 15 127
1922042S14063 1922 14 SI MM NOT_NAMED 1922-02-15 00:00:00 NR -24.7955 67.1546 main 1086 1086 _____P________ -1 -24.7955 67.1546 99 16 126
1922042S14063 1922 14 SI MM NOT_NAMED 1922-02-15 03:00:00 NR -25.2503 67.8615 main 1173 1173 _____P________ -1 -25.2503 67.8615 99 16 125
1922042S14063 1922 14 SI MM NOT_NAMED 1922-02-15 06:00:00 NR -25.7000 68.6000 reunion main 1256 1256 _____O________ -1 -25.7000 68.6000 99 9.90000 17 123
1922042S14063 1922 14 SI MM NOT_NAMED 1922-02-15 09:00:00 NR -26.1765 69.4399 main 1352 1352 _____P________ -1 -26.1765 69.4399 99 18 122
1922042S14063 1922 14 SI MM NOT_NAMED 1922-02-15 12:00:00 NR -26.6546 70.3327 main 1457 1457 _____P________ -1 -26.6546 70.3327 99 19 120
1922042S14063 1922 14 SI MM NOT_NAMED 1922-02-15 15:00:00 NR -27.1237 71.2528 main 1565 1565 _____P________ -1 -27.1237 71.2528 99 19 119
1922042S14063 1922 14 SI MM NOT_NAMED 1922-02-15 18:00:00 NR -27.5734 72.1735 main 1669 1669 _____P________ -1 -27.5734 72.1735 99 18 118
1922042S14063 1922 14 SI MM NOT_NAMED 1922-02-15 21:00:00 NR -27.9944 73.0671 main 1768 1768 _____P________ -1 -27.9944 73.0671 99 17 118
1922042S14063 1922 14 SI MM NOT_NAMED 1922-02-16 00:00:00 NR -28.3778 73.9054 main 1858 1858 _____P________ -1 -28.3778 73.9054 99 16 117
1922042S14063 1922 14 SI MM NOT_NAMED 1922-02-16 03:00:00 NR -28.7156 74.6595 main 1943 1943 _____P________ -1 -28.7156 74.6595 99 14 117
1922042S14063 1922 14 SI MM NOT_NAMED 1922-02-16 06:00:00 NR -29.0000 75.3000 reunion main 2010 2010 _____O________ -1 -29.0000 75.3000 99 9.90000 11 117
1922042S14063 1922 14 SI MM NOT_NAMED 1922-02-16 09:00:00 NR -29.2267 75.8052 main 2063 2063 _____P________ -1 -29.2267 75.8052 99 9 118
1922042S14063 1922 14 SI MM NOT_NAMED 1922-02-16 12:00:00 NR -29.4016 76.1842 main 2108 2108 _____P________ -1 -29.4016 76.1842 99 6 118
1922042S14063 1922 14 SI MM NOT_NAMED 1922-02-16 15:00:00 NR -29.5330 76.4544 main 2139 2139 _____P________ -1 -29.5330 76.4544 99 5 120
1922042S14063 1922 14 SI MM NOT_NAMED 1922-02-16 18:00:00 NR -29.6287 76.6334 main 2152 2152 _____P________ -1 -29.6287 76.6334 99 3 123
1922042S14063 1922 14 SI MM NOT_NAMED 1922-02-16 21:00:00 NR -29.6962 76.7393 main 2166 2166 _____P________ -1 -29.6962 76.7393 99 2 130
1922042S14063 1922 14 SI MM NOT_NAMED 1922-02-17 00:00:00 NR -29.7425 76.7901 main 2175 2175 _____P________ -1 -29.7425 76.7901 99 1 144
1922042S14063 1922 14 SI MM NOT_NAMED 1922-02-17 03:00:00 NR -29.7747 76.8043 main 2179 2179 _____P________ -1 -29.7747 76.8043 99 1 0
1922042S14063 1922 14 SI MM NOT_NAMED 1922-02-17 06:00:00 NR -29.8000 76.8000 reunion main 2179 _____O________ -1 -29.8000 76.8000 99 9.90000 1 0

About IBTrACS Database

This database is a web-friendly format of International Best Track Archive for Climate Stewardship (IBTrACS), a global best track data archive curated by NOAA dating back to 1842.

Updated: 2021-10-08